sensor_id;sensor_type;location;lat;lon;timestamp;P1;durP1;ratioP1;P2;durP2;ratioP2
15708;SDS011;7954;51.914;8.420;2023-06-10T00:00:02;4.47;;;4.07;;
15708;SDS011;7954;51.914;8.420;2023-06-10T00:02:32;4.20;;;3.80;;
15708;SDS011;7954;51.914;8.420;2023-06-10T00:05:00;4.33;;;3.73;;
15708;SDS011;7954;51.914;8.420;2023-06-10T00:07:29;5.00;;;4.07;;
15708;SDS011;7954;51.914;8.420;2023-06-10T00:09:59;5.03;;;4.20;;
15708;SDS011;7954;51.914;8.420;2023-06-10T00:12:30;5.53;;;4.30;;
15708;SDS011;7954;51.914;8.420;2023-06-10T00:15:06;4.40;;;4.00;;
15708;SDS011;7954;51.914;8.420;2023-06-10T00:17:35;4.20;;;3.40;;
15708;SDS011;7954;51.914;8.420;2023-06-10T00:20:07;4.27;;;3.87;;
15708;SDS011;7954;51.914;8.420;2023-06-10T00:22:39;3.70;;;3.33;;
15708;SDS011;7954;51.914;8.420;2023-06-10T00:25:08;4.80;;;3.67;;
15708;SDS011;7954;51.914;8.420;2023-06-10T00:27:37;4.10;;;3.70;;
15708;SDS011;7954;51.914;8.420;2023-06-10T00:30:08;3.73;;;3.40;;
15708;SDS011;7954;51.914;8.420;2023-06-10T00:32:36;4.17;;;3.40;;
15708;SDS011;7954;51.914;8.420;2023-06-10T00:35:05;4.73;;;3.53;;
15708;SDS011;7954;51.914;8.420;2023-06-10T00:37:34;4.13;;;3.53;;
15708;SDS011;7954;51.914;8.420;2023-06-10T00:40:03;3.87;;;3.33;;
15708;SDS011;7954;51.914;8.420;2023-06-10T00:42:31;3.87;;;3.50;;
15708;SDS011;7954;51.914;8.420;2023-06-10T00:44:59;3.73;;;3.40;;
15708;SDS011;7954;51.914;8.420;2023-06-10T00:47:29;4.10;;;3.50;;
15708;SDS011;7954;51.914;8.420;2023-06-10T00:49:59;3.63;;;3.30;;
15708;SDS011;7954;51.914;8.420;2023-06-10T00:52:28;3.67;;;3.27;;
15708;SDS011;7954;51.914;8.420;2023-06-10T00:54:57;5.07;;;3.90;;
15708;SDS011;7954;51.914;8.420;2023-06-10T00:57:27;3.90;;;3.43;;
15708;SDS011;7954;51.914;8.420;2023-06-10T00:59:56;4.17;;;3.30;;
15708;SDS011;7954;51.914;8.420;2023-06-10T01:02:25;3.37;;;3.07;;
15708;SDS011;7954;51.914;8.420;2023-06-10T01:04:54;8.00;;;3.40;;
15708;SDS011;7954;51.914;8.420;2023-06-10T01:07:23;4.63;;;3.37;;
15708;SDS011;7954;51.914;8.420;2023-06-10T01:09:54;5.57;;;3.60;;
15708;SDS011;7954;51.914;8.420;2023-06-10T01:12:29;3.73;;;3.43;;
15708;SDS011;7954;51.914;8.420;2023-06-10T01:15:01;4.33;;;3.10;;
15708;SDS011;7954;51.914;8.420;2023-06-10T01:17:30;3.63;;;3.33;;
15708;SDS011;7954;51.914;8.420;2023-06-10T01:19:59;11.97;;;3.87;;
15708;SDS011;7954;51.914;8.420;2023-06-10T01:22:31;3.33;;;3.03;;
15708;SDS011;7954;51.914;8.420;2023-06-10T01:25:03;3.90;;;3.50;;
15708;SDS011;7954;51.914;8.420;2023-06-10T01:27:34;3.60;;;3.30;;
15708;SDS011;7954;51.914;8.420;2023-06-10T01:30:07;3.87;;;3.43;;
15708;SDS011;7954;51.914;8.420;2023-06-10T01:32:44;3.57;;;3.23;;
15708;SDS011;7954;51.914;8.420;2023-06-10T01:35:18;3.30;;;3.00;;
15708;SDS011;7954;51.914;8.420;2023-06-10T01:37:53;3.77;;;3.23;;
15708;SDS011;7954;51.914;8.420;2023-06-10T01:40:24;4.07;;;3.67;;
15708;SDS011;7954;51.914;8.420;2023-06-10T01:42:53;3.23;;;3.03;;
15708;SDS011;7954;51.914;8.420;2023-06-10T01:45:21;3.87;;;3.40;;
15708;SDS011;7954;51.914;8.420;2023-06-10T01:47:49;3.40;;;3.10;;
15708;SDS011;7954;51.914;8.420;2023-06-10T01:50:17;3.63;;;3.20;;
15708;SDS011;7954;51.914;8.420;2023-06-10T01:52:45;4.13;;;3.40;;
15708;SDS011;7954;51.914;8.420;2023-06-10T01:55:19;4.00;;;3.27;;
15708;SDS011;7954;51.914;8.420;2023-06-10T01:57:47;3.63;;;3.07;;
15708;SDS011;7954;51.914;8.420;2023-06-10T02:00:15;3.37;;;3.07;;
15708;SDS011;7954;51.914;8.420;2023-06-10T02:02:43;4.03;;;3.10;;
15708;SDS011;7954;51.914;8.420;2023-06-10T02:05:11;3.90;;;3.50;;
15708;SDS011;7954;51.914;8.420;2023-06-10T02:07:39;4.23;;;3.27;;
15708;SDS011;7954;51.914;8.420;2023-06-10T02:10:07;3.33;;;2.83;;
15708;SDS011;7954;51.914;8.420;2023-06-10T02:12:38;3.83;;;3.17;;
15708;SDS011;7954;51.914;8.420;2023-06-10T02:15:06;5.90;;;3.37;;
15708;SDS011;7954;51.914;8.420;2023-06-10T02:17:34;3.60;;;3.00;;
15708;SDS011;7954;51.914;8.420;2023-06-10T02:20:03;4.50;;;3.07;;
15708;SDS011;7954;51.914;8.420;2023-06-10T02:22:33;3.97;;;3.17;;
15708;SDS011;7954;51.914;8.420;2023-06-10T02:25:01;4.70;;;3.20;;
15708;SDS011;7954;51.914;8.420;2023-06-10T02:27:30;4.57;;;3.63;;
15708;SDS011;7954;51.914;8.420;2023-06-10T02:29:59;3.57;;;3.00;;
15708;SDS011;7954;51.914;8.420;2023-06-10T02:32:27;6.20;;;3.40;;
15708;SDS011;7954;51.914;8.420;2023-06-10T02:34:55;9.27;;;3.47;;
15708;SDS011;7954;51.914;8.420;2023-06-10T02:37:23;4.60;;;3.33;;
15708;SDS011;7954;51.914;8.420;2023-06-10T02:39:51;4.00;;;3.27;;
15708;SDS011;7954;51.914;8.420;2023-06-10T02:42:19;3.13;;;2.93;;
15708;SDS011;7954;51.914;8.420;2023-06-10T02:44:47;3.67;;;2.90;;
15708;SDS011;7954;51.914;8.420;2023-06-10T02:47:17;4.13;;;3.03;;
15708;SDS011;7954;51.914;8.420;2023-06-10T02:49:45;3.37;;;3.00;;
15708;SDS011;7954;51.914;8.420;2023-06-10T02:52:13;3.20;;;2.90;;
15708;SDS011;7954;51.914;8.420;2023-06-10T02:54:41;3.47;;;3.10;;
15708;SDS011;7954;51.914;8.420;2023-06-10T02:57:11;6.53;;;3.30;;
15708;SDS011;7954;51.914;8.420;2023-06-10T02:59:40;3.57;;;3.10;;
15708;SDS011;7954;51.914;8.420;2023-06-10T03:02:08;4.00;;;2.90;;
15708;SDS011;7954;51.914;8.420;2023-06-10T03:04:38;4.13;;;3.00;;
15708;SDS011;7954;51.914;8.420;2023-06-10T03:07:07;3.40;;;3.00;;
15708;SDS011;7954;51.914;8.420;2023-06-10T03:09:37;3.90;;;3.10;;
15708;SDS011;7954;51.914;8.420;2023-06-10T03:12:08;3.63;;;2.80;;
15708;SDS011;7954;51.914;8.420;2023-06-10T03:14:36;3.10;;;2.80;;
15708;SDS011;7954;51.914;8.420;2023-06-10T03:17:07;3.20;;;2.67;;
15708;SDS011;7954;51.914;8.420;2023-06-10T03:19:36;3.20;;;2.90;;
15708;SDS011;7954;51.914;8.420;2023-06-10T03:22:10;3.87;;;3.10;;
15708;SDS011;7954;51.914;8.420;2023-06-10T03:24:40;3.00;;;2.73;;
15708;SDS011;7954;51.914;8.420;2023-06-10T03:27:10;4.17;;;3.10;;
15708;SDS011;7954;51.914;8.420;2023-06-10T03:29:38;3.50;;;3.10;;
15708;SDS011;7954;51.914;8.420;2023-06-10T03:32:07;4.77;;;2.97;;
15708;SDS011;7954;51.914;8.420;2023-06-10T03:34:35;3.57;;;3.27;;
15708;SDS011;7954;51.914;8.420;2023-06-10T03:37:03;3.73;;;3.30;;
15708;SDS011;7954;51.914;8.420;2023-06-10T03:39:33;3.70;;;3.20;;
15708;SDS011;7954;51.914;8.420;2023-06-10T03:42:01;4.13;;;2.80;;
15708;SDS011;7954;51.914;8.420;2023-06-10T03:44:28;4.50;;;3.13;;
15708;SDS011;7954;51.914;8.420;2023-06-10T03:46:57;3.50;;;3.20;;
15708;SDS011;7954;51.914;8.420;2023-06-10T03:49:26;3.60;;;3.27;;
15708;SDS011;7954;51.914;8.420;2023-06-10T03:51:56;4.23;;;2.90;;
15708;SDS011;7954;51.914;8.420;2023-06-10T03:54:23;6.07;;;3.20;;
15708;SDS011;7954;51.914;8.420;2023-06-10T03:56:53;5.93;;;3.03;;
15708;SDS011;7954;51.914;8.420;2023-06-10T03:59:21;7.70;;;3.50;;
15708;SDS011;7954;51.914;8.420;2023-06-10T04:01:50;3.40;;;3.10;;
15708;SDS011;7954;51.914;8.420;2023-06-10T04:04:18;3.57;;;3.20;;
15708;SDS011;7954;51.914;8.420;2023-06-10T04:06:47;4.30;;;3.30;;
15708;SDS011;7954;51.914;8.420;2023-06-10T04:09:15;3.73;;;2.80;;
15708;SDS011;7954;51.914;8.420;2023-06-10T04:11:43;4.00;;;3.30;;
15708;SDS011;7954;51.914;8.420;2023-06-10T04:14:13;3.73;;;3.43;;
15708;SDS011;7954;51.914;8.420;2023-06-10T04:16:41;3.40;;;3.10;;
15708;SDS011;7954;51.914;8.420;2023-06-10T04:19:10;4.80;;;3.13;;
15708;SDS011;7954;51.914;8.420;2023-06-10T04:21:39;3.33;;;2.77;;
15708;SDS011;7954;51.914;8.420;2023-06-10T04:24:06;5.37;;;3.30;;
15708;SDS011;7954;51.914;8.420;2023-06-10T04:26:34;3.97;;;2.80;;
15708;SDS011;7954;51.914;8.420;2023-06-10T04:29:03;3.97;;;3.37;;
15708;SDS011;7954;51.914;8.420;2023-06-10T04:31:32;3.90;;;3.10;;
15708;SDS011;7954;51.914;8.420;2023-06-10T04:34:00;5.03;;;3.00;;
15708;SDS011;7954;51.914;8.420;2023-06-10T04:36:28;3.90;;;3.27;;
15708;SDS011;7954;51.914;8.420;2023-06-10T04:38:57;3.93;;;3.20;;
15708;SDS011;7954;51.914;8.420;2023-06-10T04:41:25;4.10;;;3.10;;
15708;SDS011;7954;51.914;8.420;2023-06-10T04:43:53;3.93;;;2.97;;
15708;SDS011;7954;51.914;8.420;2023-06-10T04:46:21;3.13;;;2.70;;
15708;SDS011;7954;51.914;8.420;2023-06-10T04:48:51;5.07;;;3.00;;
15708;SDS011;7954;51.914;8.420;2023-06-10T04:51:21;3.80;;;2.83;;
15708;SDS011;7954;51.914;8.420;2023-06-10T04:53:49;2.83;;;2.63;;
15708;SDS011;7954;51.914;8.420;2023-06-10T04:56:17;3.60;;;2.97;;
15708;SDS011;7954;51.914;8.420;2023-06-10T04:58:46;3.50;;;3.20;;
15708;SDS011;7954;51.914;8.420;2023-06-10T05:01:14;4.07;;;3.00;;
15708;SDS011;7954;51.914;8.420;2023-06-10T05:03:42;4.37;;;3.30;;
15708;SDS011;7954;51.914;8.420;2023-06-10T05:06:12;3.27;;;2.97;;
15708;SDS011;7954;51.914;8.420;2023-06-10T05:08:39;3.40;;;3.10;;
15708;SDS011;7954;51.914;8.420;2023-06-10T05:11:07;3.17;;;2.87;;
15708;SDS011;7954;51.914;8.420;2023-06-10T05:13:36;3.87;;;3.30;;
15708;SDS011;7954;51.914;8.420;2023-06-10T05:16:06;4.03;;;3.20;;
15708;SDS011;7954;51.914;8.420;2023-06-10T05:18:35;3.63;;;3.00;;
15708;SDS011;7954;51.914;8.420;2023-06-10T05:21:03;3.70;;;3.00;;
15708;SDS011;7954;51.914;8.420;2023-06-10T05:23:35;3.00;;;2.70;;
15708;SDS011;7954;51.914;8.420;2023-06-10T05:26:03;2.83;;;2.63;;
15708;SDS011;7954;51.914;8.420;2023-06-10T05:28:31;3.30;;;3.00;;
15708;SDS011;7954;51.914;8.420;2023-06-10T05:30:59;5.60;;;3.03;;
15708;SDS011;7954;51.914;8.420;2023-06-10T05:33:27;3.37;;;3.07;;
15708;SDS011;7954;51.914;8.420;2023-06-10T05:35:55;3.40;;;3.10;;
15708;SDS011;7954;51.914;8.420;2023-06-10T05:38:23;4.03;;;3.17;;
15708;SDS011;7954;51.914;8.420;2023-06-10T05:40:53;4.07;;;2.70;;
15708;SDS011;7954;51.914;8.420;2023-06-10T05:43:23;4.00;;;2.73;;
15708;SDS011;7954;51.914;8.420;2023-06-10T05:45:50;4.40;;;3.23;;
15708;SDS011;7954;51.914;8.420;2023-06-10T05:48:19;3.23;;;2.80;;
15708;SDS011;7954;51.914;8.420;2023-06-10T05:50:47;3.40;;;3.10;;
15708;SDS011;7954;51.914;8.420;2023-06-10T05:53:15;4.13;;;3.00;;
15708;SDS011;7954;51.914;8.420;2023-06-10T05:55:43;2.90;;;2.70;;
15708;SDS011;7954;51.914;8.420;2023-06-10T05:58:14;6.23;;;2.93;;
15708;SDS011;7954;51.914;8.420;2023-06-10T06:00:42;5.73;;;2.70;;
15708;SDS011;7954;51.914;8.420;2023-06-10T06:03:10;3.87;;;2.73;;
15708;SDS011;7954;51.914;8.420;2023-06-10T06:05:38;3.40;;;2.80;;
15708;SDS011;7954;51.914;8.420;2023-06-10T06:08:06;2.60;;;2.40;;
15708;SDS011;7954;51.914;8.420;2023-06-10T06:10:35;6.27;;;3.30;;
15708;SDS011;7954;51.914;8.420;2023-06-10T06:13:03;3.63;;;3.10;;
15708;SDS011;7954;51.914;8.420;2023-06-10T06:15:33;5.00;;;2.63;;
15708;SDS011;7954;51.914;8.420;2023-06-10T06:18:01;5.77;;;2.90;;
15708;SDS011;7954;51.914;8.420;2023-06-10T06:20:29;3.93;;;2.80;;
15708;SDS011;7954;51.914;8.420;2023-06-10T06:22:57;2.73;;;2.50;;
15708;SDS011;7954;51.914;8.420;2023-06-10T06:25:25;3.83;;;2.93;;
15708;SDS011;7954;51.914;8.420;2023-06-10T06:27:53;3.20;;;2.77;;
15708;SDS011;7954;51.914;8.420;2023-06-10T06:30:21;3.67;;;2.80;;
15708;SDS011;7954;51.914;8.420;2023-06-10T06:32:51;2.53;;;2.33;;
15708;SDS011;7954;51.914;8.420;2023-06-10T06:35:19;2.90;;;2.60;;
15708;SDS011;7954;51.914;8.420;2023-06-10T06:37:48;4.07;;;2.77;;
15708;SDS011;7954;51.914;8.420;2023-06-10T06:40:16;2.70;;;2.13;;
15708;SDS011;7954;51.914;8.420;2023-06-10T06:42:44;2.73;;;2.53;;
15708;SDS011;7954;51.914;8.420;2023-06-10T06:45:12;2.60;;;2.40;;
15708;SDS011;7954;51.914;8.420;2023-06-10T06:47:40;3.43;;;2.87;;
15708;SDS011;7954;51.914;8.420;2023-06-10T06:50:10;2.77;;;2.40;;
15708;SDS011;7954;51.914;8.420;2023-06-10T06:52:37;3.07;;;2.60;;
15708;SDS011;7954;51.914;8.420;2023-06-10T06:55:06;2.87;;;2.60;;
15708;SDS011;7954;51.914;8.420;2023-06-10T06:57:35;2.60;;;2.40;;
15708;SDS011;7954;51.914;8.420;2023-06-10T07:00:04;2.80;;;2.60;;
15708;SDS011;7954;51.914;8.420;2023-06-10T07:02:34;2.60;;;2.40;;
15708;SDS011;7954;51.914;8.420;2023-06-10T07:05:02;2.63;;;2.43;;
15708;SDS011;7954;51.914;8.420;2023-06-10T07:07:32;3.53;;;2.70;;
15708;SDS011;7954;51.914;8.420;2023-06-10T07:10:00;4.00;;;2.60;;
15708;SDS011;7954;51.914;8.420;2023-06-10T07:12:28;3.00;;;2.40;;
15708;SDS011;7954;51.914;8.420;2023-06-10T07:14:56;2.90;;;2.50;;
15708;SDS011;7954;51.914;8.420;2023-06-10T07:17:24;3.53;;;2.30;;
15708;SDS011;7954;51.914;8.420;2023-06-10T07:19:53;2.60;;;2.40;;
15708;SDS011;7954;51.914;8.420;2023-06-10T07:22:23;2.53;;;2.33;;
15708;SDS011;7954;51.914;8.420;2023-06-10T07:24:53;2.80;;;2.47;;
15708;SDS011;7954;51.914;8.420;2023-06-10T07:27:22;2.70;;;2.50;;
15708;SDS011;7954;51.914;8.420;2023-06-10T07:29:52;2.80;;;2.40;;
15708;SDS011;7954;51.914;8.420;2023-06-10T07:32:20;2.80;;;2.57;;
15708;SDS011;7954;51.914;8.420;2023-06-10T07:34:50;3.43;;;2.50;;
15708;SDS011;7954;51.914;8.420;2023-06-10T07:37:18;4.93;;;2.67;;
15708;SDS011;7954;51.914;8.420;2023-06-10T07:39:46;2.73;;;2.33;;
15708;SDS011;7954;51.914;8.420;2023-06-10T07:42:16;2.50;;;2.30;;
15708;SDS011;7954;51.914;8.420;2023-06-10T07:44:44;2.70;;;2.40;;
15708;SDS011;7954;51.914;8.420;2023-06-10T07:47:14;3.23;;;2.43;;
15708;SDS011;7954;51.914;8.420;2023-06-10T07:49:42;4.30;;;2.97;;
15708;SDS011;7954;51.914;8.420;2023-06-10T07:52:10;3.10;;;2.70;;
15708;SDS011;7954;51.914;8.420;2023-06-10T07:54:37;2.63;;;2.23;;
15708;SDS011;7954;51.914;8.420;2023-06-10T07:57:06;2.60;;;2.30;;
15708;SDS011;7954;51.914;8.420;2023-06-10T07:59:36;4.27;;;2.30;;
15708;SDS011;7954;51.914;8.420;2023-06-10T08:02:04;2.73;;;2.40;;
15708;SDS011;7954;51.914;8.420;2023-06-10T08:04:32;2.50;;;2.30;;
15708;SDS011;7954;51.914;8.420;2023-06-10T08:07:02;2.70;;;2.50;;
15708;SDS011;7954;51.914;8.420;2023-06-10T08:09:29;2.50;;;2.30;;
15708;SDS011;7954;51.914;8.420;2023-06-10T08:11:57;2.43;;;2.20;;
15708;SDS011;7954;51.914;8.420;2023-06-10T08:14:25;4.33;;;2.43;;
15708;SDS011;7954;51.914;8.420;2023-06-10T08:16:55;3.50;;;2.70;;
15708;SDS011;7954;51.914;8.420;2023-06-10T08:19:23;3.03;;;2.60;;
15708;SDS011;7954;51.914;8.420;2023-06-10T08:21:51;4.07;;;2.60;;
15708;SDS011;7954;51.914;8.420;2023-06-10T08:24:19;3.40;;;2.70;;
15708;SDS011;7954;51.914;8.420;2023-06-10T08:26:47;3.90;;;2.80;;
15708;SDS011;7954;51.914;8.420;2023-06-10T08:29:15;2.83;;;2.63;;
15708;SDS011;7954;51.914;8.420;2023-06-10T08:31:43;3.00;;;2.63;;
15708;SDS011;7954;51.914;8.420;2023-06-10T08:34:14;4.70;;;2.90;;
15708;SDS011;7954;51.914;8.420;2023-06-10T08:36:44;3.03;;;2.80;;
15708;SDS011;7954;51.914;8.420;2023-06-10T08:39:12;3.30;;;3.00;;
15708;SDS011;7954;51.914;8.420;2023-06-10T08:41:40;3.60;;;3.30;;
15708;SDS011;7954;51.914;8.420;2023-06-10T08:44:13;3.37;;;2.93;;
15708;SDS011;7954;51.914;8.420;2023-06-10T08:46:45;3.20;;;2.90;;
15708;SDS011;7954;51.914;8.420;2023-06-10T08:49:17;3.00;;;2.70;;
15708;SDS011;7954;51.914;8.420;2023-06-10T08:51:48;5.47;;;2.83;;
15708;SDS011;7954;51.914;8.420;2023-06-10T08:54:20;3.70;;;2.90;;
15708;SDS011;7954;51.914;8.420;2023-06-10T08:56:50;2.80;;;2.60;;
15708;SDS011;7954;51.914;8.420;2023-06-10T08:59:18;3.10;;;2.77;;
15708;SDS011;7954;51.914;8.420;2023-06-10T09:01:47;4.03;;;2.90;;
15708;SDS011;7954;51.914;8.420;2023-06-10T09:04:17;2.93;;;2.73;;
15708;SDS011;7954;51.914;8.420;2023-06-10T09:06:47;2.93;;;2.60;;
15708;SDS011;7954;51.914;8.420;2023-06-10T09:09:16;3.27;;;2.87;;
15708;SDS011;7954;51.914;8.420;2023-06-10T09:11:46;3.67;;;3.00;;
15708;SDS011;7954;51.914;8.420;2023-06-10T09:14:14;3.00;;;2.70;;
15708;SDS011;7954;51.914;8.420;2023-06-10T09:16:44;3.83;;;2.80;;
15708;SDS011;7954;51.914;8.420;2023-06-10T09:19:18;5.97;;;3.10;;
15708;SDS011;7954;51.914;8.420;2023-06-10T09:21:47;3.75;;;2.88;;
15708;SDS011;7954;51.914;8.420;2023-06-10T09:24:15;3.23;;;2.93;;
15708;SDS011;7954;51.914;8.420;2023-06-10T09:26:44;4.67;;;3.03;;
15708;SDS011;7954;51.914;8.420;2023-06-10T09:29:12;3.77;;;2.70;;
15708;SDS011;7954;51.914;8.420;2023-06-10T09:31:40;4.80;;;2.70;;
15708;SDS011;7954;51.914;8.420;2023-06-10T09:34:08;5.05;;;2.75;;
15708;SDS011;7954;51.914;8.420;2023-06-10T09:36:40;3.45;;;3.15;;
15708;SDS011;7954;51.914;8.420;2023-06-10T09:39:13;3.20;;;2.88;;
15708;SDS011;7954;51.914;8.420;2023-06-10T09:41:43;4.33;;;3.30;;
15708;SDS011;7954;51.914;8.420;2023-06-10T09:44:12;2.92;;;2.72;;
15708;SDS011;7954;51.914;8.420;2023-06-10T09:46:41;3.88;;;3.20;;
15708;SDS011;7954;51.914;8.420;2023-06-10T09:49:09;3.45;;;3.00;;
15708;SDS011;7954;51.914;8.420;2023-06-10T09:51:49;3.50;;;2.90;;
15708;SDS011;7954;51.914;8.420;2023-06-10T09:54:19;3.10;;;2.80;;
15708;SDS011;7954;51.914;8.420;2023-06-10T09:56:47;3.40;;;3.10;;
15708;SDS011;7954;51.914;8.420;2023-06-10T09:59:15;3.35;;;2.67;;
15708;SDS011;7954;51.914;8.420;2023-06-10T10:01:43;3.33;;;2.78;;
15708;SDS011;7954;51.914;8.420;2023-06-10T10:04:14;4.00;;;2.80;;
15708;SDS011;7954;51.914;8.420;2023-06-10T10:06:53;3.25;;;2.88;;
15708;SDS011;7954;51.914;8.420;2023-06-10T10:09:21;3.45;;;2.97;;
15708;SDS011;7954;51.914;8.420;2023-06-10T10:11:48;7.43;;;3.00;;
15708;SDS011;7954;51.914;8.420;2023-06-10T10:14:18;3.33;;;2.80;;
15708;SDS011;7954;51.914;8.420;2023-06-10T10:16:47;6.10;;;3.20;;
15708;SDS011;7954;51.914;8.420;2023-06-10T10:19:18;3.65;;;3.13;;
15708;SDS011;7954;51.914;8.420;2023-06-10T10:21:52;3.78;;;2.78;;
15708;SDS011;7954;51.914;8.420;2023-06-10T10:24:23;3.17;;;2.78;;
15708;SDS011;7954;51.914;8.420;2023-06-10T10:26:59;3.33;;;3.05;;
15708;SDS011;7954;51.914;8.420;2023-06-10T10:29:33;4.97;;;3.08;;
15708;SDS011;7954;51.914;8.420;2023-06-10T10:32:06;4.05;;;3.22;;
15708;SDS011;7954;51.914;8.420;2023-06-10T10:34:37;3.30;;;3.00;;
15708;SDS011;7954;51.914;8.420;2023-06-10T10:37:13;3.88;;;3.45;;
15708;SDS011;7954;51.914;8.420;2023-06-10T10:39:41;3.35;;;3.05;;
15708;SDS011;7954;51.914;8.420;2023-06-10T10:42:09;3.10;;;2.80;;
15708;SDS011;7954;51.914;8.420;2023-06-10T10:44:38;5.03;;;3.17;;
15708;SDS011;7954;51.914;8.420;2023-06-10T10:47:07;4.07;;;3.50;;
15708;SDS011;7954;51.914;8.420;2023-06-10T10:49:36;3.38;;;3.08;;
15708;SDS011;7954;51.914;8.420;2023-06-10T10:52:09;7.30;;;2.95;;
15708;SDS011;7954;51.914;8.420;2023-06-10T10:54:43;3.38;;;3.08;;
15708;SDS011;7954;51.914;8.420;2023-06-10T10:57:13;5.85;;;3.35;;
15708;SDS011;7954;51.914;8.420;2023-06-10T10:59:45;3.28;;;2.97;;
15708;SDS011;7954;51.914;8.420;2023-06-10T11:02:18;3.25;;;2.95;;
15708;SDS011;7954;51.914;8.420;2023-06-10T11:05:00;3.22;;;2.90;;
15708;SDS011;7954;51.914;8.420;2023-06-10T11:07:29;5.47;;;3.40;;
15708;SDS011;7954;51.914;8.420;2023-06-10T11:10:00;3.45;;;3.15;;
15708;SDS011;7954;51.914;8.420;2023-06-10T11:12:49;3.47;;;3.17;;
15708;SDS011;7954;51.914;8.420;2023-06-10T11:15:19;3.45;;;3.10;;
15708;SDS011;7954;51.914;8.420;2023-06-10T11:23:39;5.82;;;3.25;;
15708;SDS011;7954;51.914;8.420;2023-06-10T11:26:14;4.60;;;3.35;;
15708;SDS011;7954;51.914;8.420;2023-06-10T11:31:50;4.03;;;2.88;;
15708;SDS011;7954;51.914;8.420;2023-06-10T11:34:21;3.80;;;3.40;;
15708;SDS011;7954;51.914;8.420;2023-06-10T11:36:54;6.35;;;3.70;;
15708;SDS011;7954;51.914;8.420;2023-06-10T11:39:25;3.78;;;3.17;;
15708;SDS011;7954;51.914;8.420;2023-06-10T11:41:54;3.75;;;3.42;;
15708;SDS011;7954;51.914;8.420;2023-06-10T11:44:25;4.45;;;3.03;;
15708;SDS011;7954;51.914;8.420;2023-06-10T11:46:55;5.28;;;3.63;;
15708;SDS011;7954;51.914;8.420;2023-06-10T11:49:25;3.45;;;3.15;;
15708;SDS011;7954;51.914;8.420;2023-06-10T11:51:53;3.50;;;3.20;;
15708;SDS011;7954;51.914;8.420;2023-06-10T11:54:21;3.50;;;3.20;;
15708;SDS011;7954;51.914;8.420;2023-06-10T11:56:49;4.35;;;3.50;;
15708;SDS011;7954;51.914;8.420;2023-06-10T11:59:19;4.63;;;3.15;;
15708;SDS011;7954;51.914;8.420;2023-06-10T12:01:55;3.22;;;2.90;;
15708;SDS011;7954;51.914;8.420;2023-06-10T12:04:23;5.03;;;3.10;;
15708;SDS011;7954;51.914;8.420;2023-06-10T12:06:52;3.40;;;3.10;;
15708;SDS011;7954;51.914;8.420;2023-06-10T12:09:21;3.45;;;3.20;;
15708;SDS011;7954;51.914;8.420;2023-06-10T12:11:54;5.07;;;3.45;;
15708;SDS011;7954;51.914;8.420;2023-06-10T12:17:23;3.30;;;3.05;;
15708;SDS011;7954;51.914;8.420;2023-06-10T12:20:04;3.67;;;3.22;;
15708;SDS011;7954;51.914;8.420;2023-06-10T12:22:37;3.92;;;3.35;;
15708;SDS011;7954;51.914;8.420;2023-06-10T12:25:06;5.30;;;3.83;;
15708;SDS011;7954;51.914;8.420;2023-06-10T12:27:37;4.63;;;3.35;;
15708;SDS011;7954;51.914;8.420;2023-06-10T12:30:09;3.78;;;3.47;;
15708;SDS011;7954;51.914;8.420;2023-06-10T12:32:38;4.70;;;3.30;;
15708;SDS011;7954;51.914;8.420;2023-06-10T12:35:08;3.75;;;3.45;;
15708;SDS011;7954;51.914;8.420;2023-06-10T12:37:40;4.20;;;3.17;;
15708;SDS011;7954;51.914;8.420;2023-06-10T12:40:09;4.10;;;3.38;;
15708;SDS011;7954;51.914;8.420;2023-06-10T12:42:38;3.58;;;3.28;;
15708;SDS011;7954;51.914;8.420;2023-06-10T12:45:10;3.20;;;3.00;;
15708;SDS011;7954;51.914;8.420;2023-06-10T12:47:39;3.53;;;3.22;;
15708;SDS011;7954;51.914;8.420;2023-06-10T12:50:08;4.03;;;3.33;;
15708;SDS011;7954;51.914;8.420;2023-06-10T12:52:38;3.83;;;2.85;;
15708;SDS011;7954;51.914;8.420;2023-06-10T12:55:07;3.88;;;3.47;;
15708;SDS011;7954;51.914;8.420;2023-06-10T12:57:36;3.78;;;3.40;;
15708;SDS011;7954;51.914;8.420;2023-06-10T13:00:06;3.78;;;3.40;;
15708;SDS011;7954;51.914;8.420;2023-06-10T13:02:37;4.65;;;3.40;;
15708;SDS011;7954;51.914;8.420;2023-06-10T13:05:05;4.05;;;3.22;;
15708;SDS011;7954;51.914;8.420;2023-06-10T13:07:34;3.60;;;3.30;;
15708;SDS011;7954;51.914;8.420;2023-06-10T13:10:01;3.60;;;3.10;;
15708;SDS011;7954;51.914;8.420;2023-06-10T13:12:31;3.42;;;3.22;;
15708;SDS011;7954;51.914;8.420;2023-06-10T13:15:12;3.83;;;3.50;;
15708;SDS011;7954;51.914;8.420;2023-06-10T13:17:43;3.83;;;3.53;;
15708;SDS011;7954;51.914;8.420;2023-06-10T13:20:16;3.55;;;3.25;;
15708;SDS011;7954;51.914;8.420;2023-06-10T13:22:44;4.07;;;3.78;;
15708;SDS011;7954;51.914;8.420;2023-06-10T13:25:14;3.53;;;3.33;;
15708;SDS011;7954;51.914;8.420;2023-06-10T13:27:42;4.32;;;4.00;;
15708;SDS011;7954;51.914;8.420;2023-06-10T13:30:10;4.38;;;4.05;;
15708;SDS011;7954;51.914;8.420;2023-06-10T13:32:39;4.07;;;3.75;;
15708;SDS011;7954;51.914;8.420;2023-06-10T13:35:09;4.40;;;4.10;;
15708;SDS011;7954;51.914;8.420;2023-06-10T13:37:37;3.88;;;3.58;;
15708;SDS011;7954;51.914;8.420;2023-06-10T13:40:07;4.20;;;3.90;;
15708;SDS011;7954;51.914;8.420;2023-06-10T13:42:36;4.32;;;3.83;;
15708;SDS011;7954;51.914;8.420;2023-06-10T13:45:05;4.28;;;3.97;;
15708;SDS011;7954;51.914;8.420;2023-06-10T13:47:36;5.00;;;4.60;;
15708;SDS011;7954;51.914;8.420;2023-06-10T13:50:06;4.30;;;4.00;;
15708;SDS011;7954;51.914;8.420;2023-06-10T13:52:36;4.40;;;4.10;;
15708;SDS011;7954;51.914;8.420;2023-06-10T13:55:04;4.78;;;4.47;;
15708;SDS011;7954;51.914;8.420;2023-06-10T13:57:34;4.65;;;4.25;;
15708;SDS011;7954;51.914;8.420;2023-06-10T14:00:03;4.90;;;4.50;;
15708;SDS011;7954;51.914;8.420;2023-06-10T14:02:32;4.85;;;4.45;;
15708;SDS011;7954;51.914;8.420;2023-06-10T14:04:59;4.63;;;4.32;;
15708;SDS011;7954;51.914;8.420;2023-06-10T14:07:28;4.85;;;4.55;;
15708;SDS011;7954;51.914;8.420;2023-06-10T14:09:57;5.32;;;4.97;;
15708;SDS011;7954;51.914;8.420;2023-06-10T14:12:26;5.90;;;5.47;;
15708;SDS011;7954;51.914;8.420;2023-06-10T14:14:53;5.47;;;5.05;;
15708;SDS011;7954;51.914;8.420;2023-06-10T14:17:21;5.63;;;5.15;;
15708;SDS011;7954;51.914;8.420;2023-06-10T14:19:50;5.90;;;5.40;;
15708;SDS011;7954;51.914;8.420;2023-06-10T14:22:18;5.80;;;5.40;;
15708;SDS011;7954;51.914;8.420;2023-06-10T14:24:46;5.78;;;5.47;;
15708;SDS011;7954;51.914;8.420;2023-06-10T14:27:16;6.13;;;5.78;;
15708;SDS011;7954;51.914;8.420;2023-06-10T14:29:44;5.80;;;5.50;;
15708;SDS011;7954;51.914;8.420;2023-06-10T14:32:11;6.80;;;6.32;;
15708;SDS011;7954;51.914;8.420;2023-06-10T14:34:40;6.53;;;6.00;;
15708;SDS011;7954;51.914;8.420;2023-06-10T14:37:10;6.22;;;5.82;;
15708;SDS011;7954;51.914;8.420;2023-06-10T14:39:39;6.30;;;5.90;;
15708;SDS011;7954;51.914;8.420;2023-06-10T14:42:07;6.75;;;6.15;;
15708;SDS011;7954;51.914;8.420;2023-06-10T14:44:36;5.80;;;5.50;;
15708;SDS011;7954;51.914;8.420;2023-06-10T14:47:04;6.30;;;5.90;;
15708;SDS011;7954;51.914;8.420;2023-06-10T14:49:33;6.57;;;6.07;;
15708;SDS011;7954;51.914;8.420;2023-06-10T14:52:01;6.43;;;5.93;;
15708;SDS011;7954;51.914;8.420;2023-06-10T14:54:28;6.78;;;6.38;;
15708;SDS011;7954;51.914;8.420;2023-06-10T14:56:56;6.72;;;6.22;;
15708;SDS011;7954;51.914;8.420;2023-06-10T14:59:24;6.65;;;6.05;;
15708;SDS011;7954;51.914;8.420;2023-06-10T15:01:53;6.80;;;6.20;;
15708;SDS011;7954;51.914;8.420;2023-06-10T15:04:21;6.43;;;5.93;;
15708;SDS011;7954;51.914;8.420;2023-06-10T15:06:50;6.40;;;5.90;;
15708;SDS011;7954;51.914;8.420;2023-06-10T15:09:18;7.85;;;7.25;;
15708;SDS011;7954;51.914;8.420;2023-06-10T15:11:46;6.38;;;5.88;;
15708;SDS011;7954;51.914;8.420;2023-06-10T15:14:14;6.80;;;6.40;;
15708;SDS011;7954;51.914;8.420;2023-06-10T15:16:43;6.25;;;5.80;;
15708;SDS011;7954;51.914;8.420;2023-06-10T15:19:12;6.53;;;6.13;;
15708;SDS011;7954;51.914;8.420;2023-06-10T15:21:40;6.85;;;6.45;;
15708;SDS011;7954;51.914;8.420;2023-06-10T15:24:08;8.23;;;6.10;;